Time;durP1;ratioP1;P1;durP2;ratioP2;P2;SDS_P1;SDS_P2;PMS_P1;PMS_P2;Temp;Humidity;BMP_temperature;BMP_pressure;BME280_temperature;BME280_humidity;BME280_pressure;Samples;Min_cycle;Max_cycle;Signal;HPM_P1;HPM_P2
2022/07/07 00:02:59;;;;;;;2.15;0.90;;;;;;;-148.56;100.00;61375.16;5075938;28;20440;-33
2022/07/07 00:06:23;;;;;;;1.42;0.85;;;;;;;-148.56;100.00;61375.16;5074594;28;20115;-34
2022/07/07 00:09:46;;;;;;;0.90;0.70;;;;;;;-148.56;100.00;61375.16;5074905;28;20032;-30
2022/07/07 00:13:10;;;;;;;2.22;0.90;;;;;;;-148.56;100.00;61375.16;5076090;28;20054;-33
2022/07/07 00:16:35;;;;;;;3.22;0.98;;;;;;;-148.56;100.00;61375.16;5060373;28;20025;-30
2022/07/07 00:19:59;;;;;;;2.92;1.00;;;;;;;-148.56;100.00;61375.16;5071153;28;20027;-34
2022/07/07 00:23:23;;;;;;;2.67;0.90;;;;;;;-148.56;100.00;61375.16;5072305;28;20131;-33
2022/07/07 00:26:46;;;;;;;1.42;0.88;;;;;;;-148.56;100.00;61375.16;5064708;28;20108;-31
2022/07/07 00:30:11;;;;;;;1.95;0.90;;;;;;;-148.56;100.00;61375.16;5073298;28;20490;-32
2022/07/07 00:33:34;;;;;;;1.17;0.95;;;;;;;-148.56;100.00;61375.16;5077579;28;20046;-30
2022/07/07 00:36:58;;;;;;;1.40;0.85;;;;;;;-148.56;100.00;61375.16;5073878;28;20036;-31
2022/07/07 00:40:22;;;;;;;2.50;0.63;;;;;;;-148.56;100.00;61375.16;5076148;28;20596;-30
2022/07/07 00:43:46;;;;;;;1.30;0.80;;;;;;;-148.56;100.00;61375.16;5073209;28;20043;-36
2022/07/07 00:47:10;;;;;;;2.72;1.10;;;;;;;-148.56;100.00;61375.16;5075665;28;20024;-30
2022/07/07 00:50:34;;;;;;;2.38;0.80;;;;;;;-148.56;100.00;61375.16;5075437;28;20040;-33
2022/07/07 00:53:58;;;;;;;1.15;0.85;;;;;;;-148.56;100.00;61375.16;5069207;28;20024;-32
2022/07/07 00:57:22;;;;;;;2.33;0.80;;;;;;;-148.56;100.00;61375.16;5082479;28;20043;-30
2022/07/07 01:00:46;;;;;;;2.85;0.90;;;;;;;-148.56;100.00;61375.16;5076487;28;20071;-31
2022/07/07 01:04:10;;;;;;;1.45;0.55;;;;;;;-148.56;100.00;61375.16;5075272;28;20142;-31
2022/07/07 01:07:34;;;;;;;0.63;0.60;;;;;;;-148.56;100.00;61375.16;5072371;28;20047;-31
2022/07/07 01:10:59;;;;;;;1.80;0.88;;;;;;;-148.56;100.00;61375.16;5075822;28;20055;-30
2022/07/07 01:14:23;;;;;;;1.55;0.85;;;;;;;-148.56;100.00;61375.16;5070150;28;20811;-30
2022/07/07 01:17:47;;;;;;;1.75;1.00;;;;;;;-148.56;100.00;61375.16;5073148;28;20081;-30
2022/07/07 01:21:11;;;;;;;1.30;0.90;;;;;;;-148.56;100.00;61375.16;5072997;28;20036;-30
2022/07/07 01:24:35;;;;;;;1.48;0.80;;;;;;;-148.56;100.00;61375.16;5059477;28;20800;-31
2022/07/07 01:28:05;;;;;;;1.48;0.80;;;;;;;-148.56;100.00;61375.16;5078633;28;20023;-31
2022/07/07 01:31:29;;;;;;;1.55;0.80;;;;;;;-148.56;100.00;61375.16;5074451;28;21105;-40
2022/07/07 01:34:53;;;;;;;1.60;0.75;;;;;;;-148.56;100.00;61375.16;5076774;28;20614;-33
2022/07/07 01:38:17;;;;;;;2.42;0.80;;;;;;;-148.56;100.00;61375.16;5072564;28;20059;-33
2022/07/07 01:41:42;;;;;;;2.50;0.88;;;;;;;-148.56;100.00;61375.16;5081675;28;20060;-38
2022/07/07 01:45:06;;;;;;;1.80;0.90;;;;;;;-148.56;100.00;61375.16;5073477;28;20639;-33
2022/07/07 01:48:30;;;;;;;2.00;0.90;;;;;;;-148.56;100.00;61375.16;5076740;28;20859;-34
2022/07/07 01:51:54;;;;;;;2.25;0.90;;;;;;;-148.56;100.00;61375.16;5074515;28;20465;-34
2022/07/07 01:55:17;;;;;;;0.98;0.75;;;;;;;-148.56;100.00;61375.16;5069725;28;20036;-33
2022/07/07 01:58:41;;;;;;;1.40;0.82;;;;;;;-148.56;100.00;61375.16;5072795;28;20039;-33
2022/07/07 02:02:05;;;;;;;1.27;0.60;;;;;;;-148.56;100.00;61375.16;5075422;28;20036;-30
2022/07/07 02:05:29;;;;;;;1.45;0.95;;;;;;;-148.56;100.00;61375.16;5070579;28;20116;-31
2022/07/07 02:08:53;;;;;;;1.08;0.73;;;;;;;-148.56;100.00;61375.16;5075206;28;20039;-31
2022/07/07 02:12:18;;;;;;;1.08;0.70;;;;;;;-148.56;100.00;61375.16;5074913;28;20126;-30
2022/07/07 02:15:42;;;;;;;1.25;0.90;;;;;;;-148.56;100.00;61375.16;5069355;28;20032;-31
2022/07/07 02:19:06;;;;;;;2.67;1.02;;;;;;;-148.56;100.00;61375.16;5072291;28;20044;-34
2022/07/07 02:22:30;;;;;;;2.05;0.90;;;;;;;-148.56;100.00;61375.16;5075478;28;20023;-29
2022/07/07 02:25:54;;;;;;;3.00;0.70;;;;;;;-148.56;100.00;61375.16;5078804;28;20229;-34
2022/07/07 02:29:17;;;;;;;0.98;0.70;;;;;;;-148.56;100.00;61375.16;5075151;28;20136;-31
2022/07/07 02:32:42;;;;;;;3.33;0.98;;;;;;;-148.56;100.00;61375.16;5075599;28;20060;-29
2022/07/07 02:36:06;;;;;;;1.15;0.70;;;;;;;-148.56;100.00;61375.16;5073572;28;20145;-31
2022/07/07 02:39:31;;;;;;;1.35;0.68;;;;;;;-148.56;100.00;61375.16;5071707;28;20036;-30
2022/07/07 02:42:56;;;;;;;1.70;0.70;;;;;;;-148.56;100.00;61375.16;5072814;28;20031;-32
2022/07/07 02:46:19;;;;;;;1.58;0.80;;;;;;;-148.56;100.00;61375.16;5073756;28;20059;-34
2022/07/07 02:49:43;;;;;;;0.80;0.70;;;;;;;-148.56;100.00;61375.16;5071243;28;20589;-31
2022/07/07 02:53:07;;;;;;;1.85;0.77;;;;;;;-148.56;100.00;61375.16;5073582;28;20043;-30
2022/07/07 02:56:32;;;;;;;1.23;0.90;;;;;;;-148.56;100.00;61375.16;5079787;28;20038;-30
2022/07/07 02:59:56;;;;;;;2.38;0.80;;;;;;;-148.56;100.00;61375.16;5076890;28;20028;-31
2022/07/07 03:03:20;;;;;;;1.48;0.88;;;;;;;-148.56;100.00;61375.16;5077032;28;20031;-30
2022/07/07 03:06:43;;;;;;;1.77;0.90;;;;;;;-148.56;100.00;61375.16;5072750;28;20042;-30
2022/07/07 03:10:08;;;;;;;2.22;0.95;;;;;;;-148.56;100.00;61375.16;5084164;28;20043;-30
2022/07/07 03:13:32;;;;;;;1.33;0.85;;;;;;;-148.56;100.00;61375.16;5082349;28;20020;-32
2022/07/07 03:16:55;;;;;;;1.23;0.70;;;;;;;-148.56;100.00;61375.16;5087942;28;20019;-29
2022/07/07 03:20:19;;;;;;;2.58;1.00;;;;;;;-148.56;100.00;61375.16;5084422;28;20023;-30
2022/07/07 03:23:43;;;;;;;1.60;0.80;;;;;;;-148.56;100.00;61375.16;5087001;28;20028;-30
2022/07/07 03:27:07;;;;;;;1.80;0.70;;;;;;;-148.56;100.00;61375.16;5083490;28;20036;-30
2022/07/07 03:30:31;;;;;;;1.40;0.80;;;;;;;-148.56;100.00;61375.16;5086582;28;20042;-31
2022/07/07 03:33:55;;;;;;;1.60;0.73;;;;;;;-148.56;100.00;61375.16;5082908;28;20478;-31
2022/07/07 03:37:19;;;;;;;1.63;0.88;;;;;;;-148.56;100.00;61375.16;5081691;28;20114;-30
2022/07/07 03:40:44;;;;;;;1.65;0.70;;;;;;;-148.56;100.00;61375.16;5074654;28;20595;-30
2022/07/07 03:44:08;;;;;;;1.38;0.70;;;;;;;-148.56;100.00;61375.16;5075535;28;20040;-31
2022/07/07 03:47:32;;;;;;;2.40;1.00;;;;;;;-148.56;100.00;61375.16;5074653;28;20028;-30
2022/07/07 03:50:56;;;;;;;2.97;0.80;;;;;;;-148.56;100.00;61375.16;5077152;28;20058;-30
2022/07/07 03:54:20;;;;;;;1.65;0.70;;;;;;;-148.56;100.00;61375.16;5074891;28;20138;-30
2022/07/07 03:57:44;;;;;;;2.25;0.85;;;;;;;-148.56;100.00;61375.16;5072514;28;20191;-32
2022/07/07 04:01:08;;;;;;;2.40;0.80;;;;;;;-148.56;100.00;61375.16;5072442;28;20035;-35
2022/07/07 04:04:32;;;;;;;1.05;0.73;;;;;;;-148.56;100.00;61375.16;5071091;28;20032;-30
2022/07/07 04:07:56;;;;;;;2.78;0.90;;;;;;;-148.56;100.00;61375.16;5072474;28;20045;-35
2022/07/07 04:11:19;;;;;;;1.65;0.90;;;;;;;-148.56;100.00;61375.16;5076369;28;20144;-30
2022/07/07 04:14:43;;;;;;;6.00;1.00;;;;;;;-148.56;100.00;61375.16;5075913;28;20031;-30
2022/07/07 04:18:07;;;;;;;3.30;0.80;;;;;;;-148.56;100.00;61375.16;5072616;28;20031;-31
2022/07/07 04:21:31;;;;;;;1.67;1.00;;;;;;;-148.56;100.00;61375.16;5070924;28;20039;-34
2022/07/07 04:24:55;;;;;;;1.08;0.60;;;;;;;-148.56;100.00;61375.16;5072289;28;20035;-31
2022/07/07 04:28:19;;;;;;;1.85;0.70;;;;;;;-148.56;100.00;61375.16;5078961;28;20030;-30
2022/07/07 04:31:46;;;;;;;2.78;0.90;;;;;;;-148.56;100.00;61375.16;5070105;28;20043;-33
2022/07/07 04:35:12;;;;;;;1.92;0.80;;;;;;;-148.56;100.00;61375.16;5073001;28;20043;-31
2022/07/07 04:38:36;;;;;;;1.75;0.90;;;;;;;-148.56;100.00;61375.16;5079691;28;20781;-30
2022/07/07 04:42:00;;;;;;;2.05;0.90;;;;;;;-148.56;100.00;61375.16;5071408;28;20042;-33
2022/07/07 04:45:24;;;;;;;2.03;0.77;;;;;;;-148.56;100.00;61375.16;5075723;28;20394;-30
2022/07/07 04:48:48;;;;;;;2.70;0.93;;;;;;;-148.56;100.00;61375.16;5072483;28;20027;-34
2022/07/07 04:52:12;;;;;;;1.35;0.70;;;;;;;-148.56;100.00;61375.16;5070402;28;20067;-30
2022/07/07 04:55:36;;;;;;;2.05;0.90;;;;;;;-148.56;100.00;61375.16;5071828;28;20077;-30
2022/07/07 04:59:00;;;;;;;2.17;0.88;;;;;;;-148.56;100.00;61375.16;5082139;28;20023;-29
2022/07/07 05:02:24;;;;;;;1.00;0.80;;;;;;;-148.56;100.00;61375.16;5075336;28;20089;-33
2022/07/07 05:05:47;;;;;;;3.17;0.80;;;;;;;-148.56;100.00;61375.16;5075649;28;20497;-35
2022/07/07 05:09:11;;;;;;;2.17;0.70;;;;;;;-148.56;100.00;61375.16;5069851;28;20062;-32
2022/07/07 05:12:35;;;;;;;2.38;0.93;;;;;;;-148.56;100.00;61375.16;5071483;28;20035;-31
2022/07/07 05:15:59;;;;;;;3.67;1.20;;;;;;;-148.56;100.00;61375.16;5072437;28;20146;-34
2022/07/07 05:19:23;;;;;;;2.28;1.10;;;;;;;-148.56;100.00;61375.16;5071143;28;20122;-30
2022/07/07 05:22:47;;;;;;;3.40;1.10;;;;;;;-148.56;100.00;61375.16;5077503;28;20024;-30
2022/07/07 05:26:12;;;;;;;2.45;0.90;;;;;;;-148.56;100.00;61375.16;5084045;28;21072;-30
2022/07/07 05:29:35;;;;;;;5.00;1.00;;;;;;;-148.56;100.00;61375.16;5078129;28;21687;-30
2022/07/07 05:32:59;;;;;;;3.67;1.27;;;;;;;-148.56;100.00;61375.16;5073514;28;20023;-31
2022/07/07 05:36:23;;;;;;;3.13;1.00;;;;;;;-148.56;100.00;61375.16;5072559;28;20028;-29
2022/07/07 05:39:47;;;;;;;4.55;1.10;;;;;;;-148.56;100.00;61375.16;5076499;28;20043;-30
2022/07/07 05:43:11;;;;;;;2.17;0.88;;;;;;;-148.56;100.00;61375.16;5076938;28;22176;-30
2022/07/07 05:46:35;;;;;;;3.70;1.10;;;;;;;-148.56;100.00;61375.16;5077720;28;20078;-32
2022/07/07 05:49:59;;;;;;;2.25;0.80;;;;;;;-148.56;100.00;61375.16;5074569;28;20117;-30
2022/07/07 05:53:22;;;;;;;2.35;0.98;;;;;;;-148.56;100.00;61375.16;5078909;28;20031;-34
2022/07/07 05:56:46;;;;;;;4.00;0.98;;;;;;;-148.56;100.00;61375.16;5075851;28;20116;-36
2022/07/07 06:00:10;;;;;;;2.88;1.00;;;;;;;-148.56;100.00;61375.16;5076817;28;20028;-30
2022/07/07 06:03:34;;;;;;;4.47;1.20;;;;;;;-148.56;100.00;61375.16;5078028;28;20424;-31
2022/07/07 06:06:58;;;;;;;1.80;0.80;;;;;;;-148.56;100.00;61375.16;5075000;28;20749;-31
2022/07/07 06:10:22;;;;;;;3.28;1.00;;;;;;;-148.56;100.00;61375.16;5077496;28;20042;-32
2022/07/07 06:13:46;;;;;;;3.47;1.17;;;;;;;-148.56;100.00;61375.16;5073314;28;20097;-31
2022/07/07 06:17:10;;;;;;;1.35;0.80;;;;;;;-148.56;100.00;61375.16;5084359;28;20032;-31
2022/07/07 06:20:34;;;;;;;2.20;0.80;;;;;;;-148.56;100.00;61375.16;5078854;28;20039;-30
2022/07/07 06:23:57;;;;;;;1.85;0.90;;;;;;;-148.56;100.00;61375.16;5083969;28;20028;-32
2022/07/07 06:27:21;;;;;;;3.30;0.90;;;;;;;-148.56;100.00;61375.16;5084549;28;20032;-30
2022/07/07 06:30:45;;;;;;;3.47;1.20;;;;;;;-148.56;100.00;61375.16;5082683;28;20043;-30
2022/07/07 06:34:09;;;;;;;1.85;1.00;;;;;;;-148.56;100.00;61375.16;5075600;28;20114;-31
2022/07/07 06:37:33;;;;;;;2.65;0.80;;;;;;;-148.56;100.00;61375.16;5078378;28;20038;-31
2022/07/07 06:40:58;;;;;;;5.00;1.25;;;;;;;-148.56;100.00;61375.16;5074306;28;20047;-29
2022/07/07 06:44:22;;;;;;;13.70;2.30;;;;;;;-148.56;100.00;61375.16;5079587;28;20131;-32
2022/07/07 06:47:46;;;;;;;8.95;2.10;;;;;;;-148.56;100.00;61375.16;5072555;28;20390;-35
2022/07/07 06:51:10;;;;;;;6.75;2.05;;;;;;;-148.56;100.00;61375.16;5072855;28;20023;-31
2022/07/07 06:54:33;;;;;;;9.82;2.38;;;;;;;-148.56;100.00;61375.16;5074035;28;20035;-30
2022/07/07 06:57:57;;;;;;;6.95;2.03;;;;;;;-148.56;100.00;61375.16;5087517;28;20035;-30
2022/07/07 07:01:21;;;;;;;6.97;1.63;;;;;;;-148.56;100.00;61375.16;5076443;28;20055;-29
2022/07/07 07:04:47;;;;;;;11.50;1.83;;;;;;;-148.56;100.00;61375.16;5077979;28;20035;-30
2022/07/07 07:08:11;;;;;;;7.05;1.92;;;;;;;-148.56;100.00;61375.16;5076591;28;20513;-30
2022/07/07 07:11:35;;;;;;;8.65;2.17;;;;;;;-148.56;100.00;61375.16;5074490;28;20031;-30
2022/07/07 07:14:59;;;;;;;10.20;1.90;;;;;;;-148.56;100.00;61375.16;5076137;28;20134;-31
2022/07/07 07:18:23;;;;;;;11.48;2.05;;;;;;;-148.56;100.00;61375.16;5078938;28;20100;-29
2022/07/07 07:21:47;;;;;;;3.83;1.52;;;;;;;-148.56;100.00;61375.16;5079633;28;20051;-30
2022/07/07 07:25:10;;;;;;;7.75;2.03;;;;;;;-148.56;100.00;61375.16;5082196;28;20036;-31
2022/07/07 07:28:34;;;;;;;2.70;1.48;;;;;;;-148.56;100.00;61375.16;5071205;28;20040;-30
2022/07/07 07:31:58;;;;;;;3.25;1.35;;;;;;;-148.56;100.00;61375.16;5071369;28;20032;-29
2022/07/07 07:35:22;;;;;;;5.50;2.05;;;;;;;-148.56;100.00;61375.16;5070348;28;20482;-30
2022/07/07 07:38:48;;;;;;;5.40;1.90;;;;;;;-148.56;100.00;61375.16;5074323;28;20059;-32
2022/07/07 07:42:12;;;;;;;4.07;1.70;;;;;;;-148.56;100.00;61375.16;5071362;28;20039;-30
2022/07/07 07:45:36;;;;;;;3.88;1.55;;;;;;;-148.56;100.00;61375.16;5070161;28;20035;-30
2022/07/07 07:49:05;;;;;;;5.90;2.15;;;;;;;-148.56;100.00;61375.16;5075246;28;20069;-30
2022/07/07 07:52:28;;;;;;;5.05;1.80;;;;;;;-148.56;100.00;61375.16;5069412;28;20079;-29
2022/07/07 07:55:53;;;;;;;5.22;1.70;;;;;;;-148.56;100.00;61375.16;5074196;28;20755;-31
2022/07/07 07:59:17;;;;;;;5.85;1.95;;;;;;;-148.56;100.00;61375.16;5079088;28;20139;-30
2022/07/07 08:02:41;;;;;;;7.78;2.35;;;;;;;-148.56;100.00;61375.16;5072510;28;22033;-30
2022/07/07 08:06:05;;;;;;;6.90;1.85;;;;;;;-148.56;100.00;61375.16;5074342;28;20028;-30
2022/07/07 08:09:29;;;;;;;9.23;1.80;;;;;;;-148.56;100.00;61375.16;5076244;28;20023;-30
2022/07/07 08:12:53;;;;;;;4.13;1.88;;;;;;;-148.56;100.00;61375.16;5074456;28;20032;-30
2022/07/07 08:16:17;;;;;;;3.35;1.77;;;;;;;-148.56;100.00;61375.16;5069305;28;20208;-29
2022/07/07 08:19:41;;;;;;;7.53;2.03;;;;;;;-148.56;100.00;61375.16;5067854;28;20038;-31
2022/07/07 08:23:04;;;;;;;5.40;1.92;;;;;;;-148.56;100.00;61375.16;5073295;28;20028;-30
2022/07/07 08:26:28;;;;;;;19.75;2.10;;;;;;;-148.56;100.00;61375.16;5065532;28;20115;-30
2022/07/07 08:29:54;;;;;;;5.60;2.00;;;;;;;-148.56;100.00;61375.16;5064152;28;20493;-30
2022/07/07 08:33:18;;;;;;;5.25;1.70;;;;;;;-148.56;100.00;61375.16;5066124;28;20758;-30
2022/07/07 08:36:41;;;;;;;5.05;1.90;;;;;;;-148.56;100.00;61375.16;5072064;28;20904;-30
2022/07/07 08:40:05;;;;;;;6.65;1.92;;;;;;;-148.56;100.00;61375.16;5061647;28;20039;-30
2022/07/07 08:43:29;;;;;;;7.35;1.85;;;;;;;-148.56;100.00;61375.16;5069645;28;20070;-30
2022/07/07 08:46:53;;;;;;;4.88;2.05;;;;;;;-148.56;100.00;61375.16;5070739;28;20050;-29
2022/07/07 08:50:17;;;;;;;3.80;1.98;;;;;;;-148.56;100.00;61375.16;5067997;28;20027;-30
2022/07/07 08:53:43;;;;;;;4.45;2.17;;;;;;;-148.56;100.00;61375.16;5070496;28;20031;-30
2022/07/07 08:57:07;;;;;;;6.60;2.10;;;;;;;-148.56;100.00;61375.16;5073254;28;20684;-28
2022/07/07 09:00:31;;;;;;;6.15;2.10;;;;;;;-148.56;100.00;61375.16;5068789;28;20562;-28
2022/07/07 09:03:55;;;;;;;7.35;1.90;;;;;;;-148.56;100.00;61375.16;5060401;28;20166;-29
2022/07/07 09:07:19;;;;;;;7.50;2.05;;;;;;;-148.56;100.00;61375.16;5071953;28;20028;-29
2022/07/07 09:10:44;;;;;;;16.90;3.33;;;;;;;-148.56;100.00;61375.16;5068767;28;20054;-30
2022/07/07 09:14:17;;;;;;;12.63;3.63;;;;;;;-148.56;100.00;61375.16;5063208;28;20110;-32
2022/07/07 09:17:41;;;;;;;16.80;4.07;;;;;;;-148.56;100.00;61375.16;5072152;28;20373;-29
2022/07/07 09:21:07;;;;;;;17.30;4.30;;;;;;;-148.56;100.00;61375.16;5071884;28;20501;-29
2022/07/07 09:24:31;;;;;;;13.55;4.15;;;;;;;-148.56;100.00;61375.16;5071546;28;20674;-31
2022/07/07 09:27:55;;;;;;;16.33;3.97;;;;;;;-148.56;100.00;61375.16;5061074;28;20036;-30
2022/07/07 09:31:25;;;;;;;15.65;4.35;;;;;;;-148.56;100.00;61375.16;5080985;28;20724;-30
2022/07/07 09:38:13;;;;;;;13.20;3.83;;;;;;;-148.56;100.00;61375.16;5077768;28;20382;-31
2022/07/07 09:39:03;;;;;;;14.15;3.70;;;;;;;-148.56;100.00;61375.16;5077980;28;20107;-30
2022/07/07 09:42:31;;;;;;;12.88;3.72;;;;;;;-148.56;100.00;61375.16;5064517;28;20996;-30
2022/07/07 09:46:10;;;;;;;11.18;3.50;;;;;;;-148.56;100.00;61375.16;5079800;28;20725;-30
2022/07/07 09:49:50;;;;;;;12.00;3.38;;;;;;;-148.56;100.00;61375.16;5087369;28;20032;-31
2022/07/07 09:53:15;;;;;;;10.05;3.58;;;;;;;-148.56;100.00;61375.16;5087852;28;20031;-31
2022/07/07 09:56:39;;;;;;;13.00;3.67;;;;;;;-148.56;100.00;61375.16;5086793;28;20105;-29
2022/07/07 10:00:04;;;;;;;6.60;3.03;;;;;;;-148.56;100.00;61375.16;5085682;28;20055;-30
2022/07/07 10:03:28;;;;;;;8.35;2.70;;;;;;;-148.56;100.00;61375.16;5084971;28;20024;-31
2022/07/07 10:06:52;;;;;;;6.68;3.03;;;;;;;-148.56;100.00;61375.16;5072811;28;20123;-33
2022/07/07 10:10:19;;;;;;;8.38;2.90;;;;;;;-148.56;100.00;61375.16;5074533;28;20100;-32
2022/07/07 10:13:43;;;;;;;4.97;2.55;;;;;;;-148.56;100.00;61375.16;5083772;28;20027;-31
2022/07/07 10:17:08;;;;;;;9.00;2.97;;;;;;;-148.56;100.00;61375.16;5088501;28;20040;-31
2022/07/07 10:20:31;;;;;;;7.50;2.95;;;;;;;-148.56;100.00;61375.16;5086837;28;20038;-29
2022/07/07 10:23:55;;;;;;;5.85;2.65;;;;;;;-148.56;100.00;61375.16;5080877;28;20078;-38
2022/07/07 10:27:33;;;;;;;5.07;2.38;;;;;;;-148.56;100.00;61375.16;5067997;28;20104;-31
2022/07/07 10:31:08;;;;;;;7.10;2.90;;;;;;;-148.56;100.00;61375.16;5085864;28;20051;-31
2022/07/07 10:34:33;;;;;;;7.25;2.60;;;;;;;-148.56;100.00;61375.16;5063308;28;20551;-31
2022/07/07 10:38:00;;;;;;;7.22;2.60;;;;;;;-148.56;100.00;61375.16;5089361;28;20039;-32
2022/07/07 10:41:24;;;;;;;5.70;2.50;;;;;;;-148.56;100.00;61375.16;5072854;28;20043;-32
2022/07/07 10:45:02;;;;;;;6.03;2.72;;;;;;;-148.56;100.00;61375.16;5073751;28;20036;-31
2022/07/07 10:48:42;;;;;;;6.47;2.67;;;;;;;-148.56;100.00;61375.16;5064856;28;20040;-33
2022/07/07 10:52:18;;;;;;;4.40;2.28;;;;;;;-148.56;100.00;61375.16;5075481;28;20032;-35
2022/07/07 10:55:58;;;;;;;6.95;2.70;;;;;;;-148.56;100.00;61375.16;5083749;28;20028;-36
2022/07/07 10:59:58;;;;;;;10.23;2.70;;;;;;;-148.56;100.00;61375.16;5086139;28;20119;-37
2022/07/07 11:03:35;;;;;;;8.40;2.70;;;;;;;-148.56;100.00;61375.16;5075904;28;20124;-35
2022/07/07 11:07:12;;;;;;;7.35;2.08;;;;;;;-148.56;100.00;61375.16;5071353;28;20114;-31
2022/07/07 11:10:55;;;;;;;7.30;2.42;;;;;;;-148.56;100.00;61375.16;5070060;28;20036;-33
2022/07/07 11:14:35;;;;;;;7.22;2.13;;;;;;;-148.56;100.00;61375.16;5072190;28;20142;-33
2022/07/07 11:18:01;;;;;;;6.13;2.30;;;;;;;-148.56;100.00;61375.16;5069929;28;20242;-32
2022/07/07 11:21:32;;;;;;;6.85;2.00;;;;;;;-148.56;100.00;61375.16;5073413;28;20037;-32
2022/07/07 11:24:57;;;;;;;4.82;1.60;;;;;;;-148.56;100.00;61375.16;5075368;28;21070;-37
2022/07/07 11:28:25;;;;;;;3.42;1.70;;;;;;;-148.56;100.00;61375.16;5079784;28;20871;-31
2022/07/07 11:32:05;;;;;;;6.57;1.75;;;;;;;-148.56;100.00;61375.16;5076103;28;20514;-30
2022/07/07 11:35:40;;;;;;;5.57;2.00;;;;;;;-148.56;100.00;61375.16;5077882;28;20787;-31
2022/07/07 11:39:07;;;;;;;6.70;2.03;;;;;;;-148.56;100.00;61375.16;5073138;28;20028;-35
2022/07/07 11:42:35;;;;;;;5.35;1.67;;;;;;;-148.56;100.00;61375.16;5077952;28;20035;-32
2022/07/07 11:45:58;;;;;;;4.88;1.85;;;;;;;-148.56;100.00;61375.16;5077438;28;21461;-35
2022/07/07 11:49:22;;;;;;;2.88;1.63;;;;;;;-148.56;100.00;61375.16;5078957;28;20020;-30
2022/07/07 11:52:49;;;;;;;5.53;1.60;;;;;;;-148.56;100.00;61375.16;5074277;28;20032;-34
2022/07/07 11:56:26;;;;;;;6.22;1.85;;;;;;;-148.56;100.00;61375.16;5062123;28;20035;-33
2022/07/07 11:59:53;;;;;;;5.75;1.88;;;;;;;-148.56;100.00;61375.16;5076077;28;20051;-34
2022/07/07 12:03:17;;;;;;;4.13;1.50;;;;;;;-148.56;100.00;61375.16;5067926;28;20042;-33
2022/07/07 12:06:41;;;;;;;4.97;1.60;;;;;;;-148.56;100.00;61375.16;5074062;28;20028;-34
2022/07/07 12:10:05;;;;;;;7.13;1.98;;;;;;;-148.56;100.00;61375.16;5069650;28;20078;-32
2022/07/07 12:13:29;;;;;;;6.65;1.73;;;;;;;-148.56;100.00;61375.16;5075211;28;20031;-32
2022/07/07 12:16:53;;;;;;;6.30;1.52;;;;;;;-148.56;100.00;61375.16;5073965;28;20024;-33
2022/07/07 12:20:17;;;;;;;6.78;1.70;;;;;;;-148.56;100.00;61375.16;5065736;28;20726;-33
2022/07/07 12:23:42;;;;;;;6.28;1.77;;;;;;;-148.56;100.00;61375.16;5077519;28;20035;-31
2022/07/07 12:27:15;;;;;;;4.65;1.48;;;;;;;-148.56;100.00;61375.16;5072124;28;20493;-29
2022/07/07 12:30:56;;;;;;;8.48;1.77;;;;;;;-148.56;100.00;61375.16;5071804;28;20438;-31
2022/07/07 12:34:35;;;;;;;3.70;1.58;;;;;;;-148.56;100.00;61375.16;5074772;28;20062;-34
2022/07/07 12:38:00;;;;;;;6.47;1.95;;;;;;;-148.56;100.00;61375.16;5076653;28;20031;-31
2022/07/07 12:41:27;;;;;;;5.85;2.00;;;;;;;-148.56;100.00;61375.16;5058138;28;20138;-29
2022/07/07 12:45:07;;;;;;;6.95;1.83;;;;;;;-148.56;100.00;61375.16;5073935;28;20067;-31
2022/07/07 12:48:31;;;;;;;10.07;1.83;;;;;;;-148.56;100.00;61375.16;5069496;28;20070;-30
2022/07/07 12:52:02;;;;;;;9.10;1.80;;;;;;;-148.56;100.00;61375.16;5061035;28;20036;-30
2022/07/07 12:55:39;;;;;;;10.82;1.90;;;;;;;-148.56;100.00;61375.16;5076354;28;20024;-34
2022/07/07 12:59:18;;;;;;;9.10;1.70;;;;;;;-148.56;100.00;61375.16;5078506;28;20032;-32
2022/07/07 13:02:46;;;;;;;4.93;2.03;;;;;;;-148.56;100.00;61375.16;5072603;28;20424;-34
2022/07/07 13:06:10;;;;;;;9.07;1.95;;;;;;;-148.56;100.00;61375.16;5073797;28;20032;-31
2022/07/07 13:09:34;;;;;;;4.97;1.63;;;;;;;-148.56;100.00;61375.16;5069980;28;20035;-31
2022/07/07 13:12:58;;;;;;;4.85;1.60;;;;;;;-148.56;100.00;61375.16;5070508;28;20035;-35
2022/07/07 13:16:21;;;;;;;5.03;1.67;;;;;;;-148.56;100.00;61375.16;5070755;28;20102;-31
2022/07/07 13:19:45;;;;;;;2.30;1.30;;;;;;;-148.56;100.00;61375.16;5073645;28;20046;-31
2022/07/07 13:23:11;;;;;;;8.00;1.60;;;;;;;-148.56;100.00;61375.16;5077755;28;20035;-31
2022/07/07 13:26:35;;;;;;;3.50;1.50;;;;;;;-148.56;100.00;61375.16;5074238;28;20023;-30
2022/07/07 13:29:59;;;;;;;6.78;1.92;;;;;;;-148.56;100.00;61375.16;5081820;28;20535;-34
2022/07/07 13:33:23;;;;;;;3.45;1.40;;;;;;;-148.56;100.00;61375.16;5074922;28;20147;-30
2022/07/07 13:36:47;;;;;;;5.20;1.90;;;;;;;-148.56;100.00;61375.16;5078142;28;20052;-31
2022/07/07 13:40:11;;;;;;;5.53;1.60;;;;;;;-148.56;100.00;61375.16;5074285;28;20056;-31
2022/07/07 13:43:35;;;;;;;4.30;1.30;;;;;;;-148.56;100.00;61375.16;5075551;28;20783;-29
2022/07/07 13:46:59;;;;;;;4.30;1.60;;;;;;;-148.56;100.00;61375.16;5080499;28;20019;-32
2022/07/07 13:50:23;;;;;;;2.97;1.50;;;;;;;-148.56;100.00;61375.16;5073960;28;20427;-30
2022/07/07 13:53:47;;;;;;;3.17;1.27;;;;;;;-148.56;100.00;61375.16;5077790;28;20043;-30
2022/07/07 13:57:11;;;;;;;4.72;1.20;;;;;;;-148.56;100.00;61375.16;5078149;28;20036;-33
2022/07/07 14:00:35;;;;;;;2.75;1.15;;;;;;;-148.56;100.00;61375.16;5077688;28;20085;-33
2022/07/07 14:03:59;;;;;;;2.25;1.15;;;;;;;-148.56;100.00;61375.16;5082893;28;20602;-30
2022/07/07 14:07:23;;;;;;;1.77;1.20;;;;;;;-148.56;100.00;61375.16;5077347;28;20030;-33
2022/07/07 14:10:47;;;;;;;3.00;1.13;;;;;;;-148.56;100.00;61375.16;5078357;28;20397;-30
2022/07/07 14:14:11;;;;;;;4.22;1.60;;;;;;;-148.56;100.00;61375.16;5076931;28;20032;-31
2022/07/07 14:17:35;;;;;;;1.50;0.85;;;;;;;-148.56;100.00;61375.16;5079145;28;20023;-32
2022/07/07 14:20:59;;;;;;;2.78;1.23;;;;;;;-148.56;100.00;61375.16;5080115;28;20055;-30
2022/07/07 14:24:23;;;;;;;2.85;1.08;;;;;;;-148.56;100.00;61375.16;5082092;28;20186;-33
2022/07/07 14:27:47;;;;;;;3.20;1.20;;;;;;;-148.56;100.00;61375.16;5083930;28;20115;-30
2022/07/07 14:31:11;;;;;;;2.08;1.10;;;;;;;-148.56;100.00;61375.16;5075833;28;20483;-32
2022/07/07 14:34:35;;;;;;;1.63;0.93;;;;;;;-148.56;100.00;61375.16;5069150;28;20040;-35
2022/07/07 14:37:59;;;;;;;2.03;1.25;;;;;;;-148.56;100.00;61375.16;5078762;28;20048;-35
2022/07/07 14:41:23;;;;;;;2.00;1.05;;;;;;;-148.56;100.00;61375.16;5076868;28;20024;-30
2022/07/07 14:44:47;;;;;;;2.90;1.02;;;;;;;-148.56;100.00;61375.16;5084172;28;20054;-30
2022/07/07 14:48:11;;;;;;;1.77;0.70;;;;;;;-148.56;100.00;61375.16;5080522;28;20833;-31
2022/07/07 14:51:35;;;;;;;1.00;0.82;;;;;;;-148.56;100.00;61375.16;5078345;28;20020;-31
2022/07/07 14:54:59;;;;;;;2.35;1.00;;;;;;;-148.56;100.00;61375.16;5080743;28;20035;-31
2022/07/07 14:58:23;;;;;;;1.90;1.02;;;;;;;-148.56;100.00;61375.16;5084390;28;20938;-30
2022/07/07 15:01:46;;;;;;;2.15;1.00;;;;;;;-148.56;100.00;61375.16;5078943;28;20185;-30
2022/07/07 15:05:10;;;;;;;4.18;1.02;;;;;;;-148.56;100.00;61375.16;5072198;28;20484;-33
2022/07/07 15:08:34;;;;;;;2.53;0.95;;;;;;;-148.56;100.00;61375.16;5078678;28;20031;-35
2022/07/07 15:11:58;;;;;;;1.88;0.80;;;;;;;-148.56;100.00;61375.16;5074214;28;20038;-30
2022/07/07 15:15:22;;;;;;;1.50;1.05;;;;;;;-148.56;100.00;61375.16;5082089;28;20041;-31
2022/07/07 15:18:46;;;;;;;1.27;0.80;;;;;;;-148.56;100.00;61375.16;5081411;28;20050;-32
2022/07/07 15:22:10;;;;;;;0.80;0.80;;;;;;;-148.56;100.00;61375.16;5078193;28;20027;-30
2022/07/07 15:25:35;;;;;;;1.63;0.90;;;;;;;-148.56;100.00;61375.16;5080348;28;20063;-32
2022/07/07 15:28:59;;;;;;;1.40;1.00;;;;;;;-148.56;100.00;61375.16;5061991;28;20053;-32
2022/07/07 15:32:23;;;;;;;1.02;0.73;;;;;;;-148.56;100.00;61375.16;5058343;28;20030;-31
2022/07/07 15:35:47;;;;;;;1.90;0.85;;;;;;;-148.56;100.00;61375.16;5064175;28;20147;-39